Time;durP1;ratioP1;P1;durP2;ratioP2;P2;SDS_P1;SDS_P2;PMS_P1;PMS_P2;Temp;Humidity;BMP_temperature;BMP_pressure;BME280_temperature;BME280_humidity;BME280_pressure;Samples;Min_cycle;Max_cycle;Signal;HPM_P1;HPM_P2
2023/08/12 00:00:45;;;;;;;16.83;15.93;;;;;;;;;;5072922;28;20019;-62
2023/08/12 00:03:11;;;;;;;16.88;15.98;;;;;;;;;;5072480;28;20041;-62
2023/08/12 00:05:36;;;;;;;16.70;15.80;;;;;;;;;;5072594;28;20387;-62
2023/08/12 00:08:02;;;;;;;16.20;15.40;;;;;;;;;;5074443;28;20020;-62
2023/08/12 00:10:27;;;;;;;16.45;15.57;;;;;;;;;;5074300;28;20024;-62
2023/08/12 00:12:53;;;;;;;16.38;15.50;;;;;;;;;;5074108;28;20029;-61
2023/08/12 00:15:18;;;;;;;16.88;15.98;;;;;;;;;;5069216;28;20059;-64
2023/08/12 00:17:43;;;;;;;16.90;16.00;;;;;;;;;;5070081;28;20413;-63
2023/08/12 00:20:10;;;;;;;16.80;15.90;;;;;;;;;;5068604;28;20031;-61
2023/08/12 00:22:36;;;;;;;16.73;15.82;;;;;;;;;;5068641;28;20059;-61
2023/08/12 00:25:01;;;;;;;16.48;15.60;;;;;;;;;;5068450;28;20044;-62
2023/08/12 00:27:26;;;;;;;16.10;15.30;;;;;;;;;;5068899;28;20036;-62
2023/08/12 00:29:52;;;;;;;16.80;15.90;;;;;;;;;;5069148;28;20058;-61
2023/08/12 00:32:17;;;;;;;16.58;15.70;;;;;;;;;;5071930;28;20541;-61
2023/08/12 00:34:42;;;;;;;16.63;15.73;;;;;;;;;;5071121;28;20503;-62
2023/08/12 00:37:07;;;;;;;16.95;16.05;;;;;;;;;;5070558;28;20020;-62
2023/08/12 00:39:33;;;;;;;16.70;15.80;;;;;;;;;;5074039;28;20027;-61
2023/08/12 00:41:58;;;;;;;16.60;15.70;;;;;;;;;;5069929;28;20472;-62
2023/08/12 00:44:23;;;;;;;16.55;15.65;;;;;;;;;;5074009;28;20071;-62
2023/08/12 00:46:49;;;;;;;16.50;15.60;;;;;;;;;;5071408;28;20020;-61
2023/08/12 00:49:15;;;;;;;17.00;16.10;;;;;;;;;;5068614;28;20395;-62
2023/08/12 00:51:41;;;;;;;16.60;15.80;;;;;;;;;;5069946;28;20016;-61
2023/08/12 00:54:08;;;;;;;16.35;15.55;;;;;;;;;;5074654;28;20020;-61
2023/08/12 00:56:33;;;;;;;16.25;15.43;;;;;;;;;;5069427;28;20036;-61
2023/08/12 00:59:00;;;;;;;16.50;15.70;;;;;;;;;;5070018;28;20028;-61
2023/08/12 01:01:25;;;;;;;16.77;15.88;;;;;;;;;;5071365;28;20412;-62
2023/08/12 01:03:51;;;;;;;16.83;15.93;;;;;;;;;;5071384;28;20115;-61
2023/08/12 01:06:16;;;;;;;16.95;16.05;;;;;;;;;;5073171;28;20051;-62
2023/08/12 01:08:42;;;;;;;17.08;16.10;;;;;;;;;;5071452;28;20039;-60
2023/08/12 01:11:07;;;;;;;17.33;16.33;;;;;;;;;;5072124;28;20387;-61
2023/08/12 01:13:37;;;;;;;17.13;16.23;;;;;;;;;;5047511;28;20048;-62
2023/08/12 01:16:05;;;;;;;17.55;16.55;;;;;;;;;;5071655;28;20021;-61
2023/08/12 01:18:31;;;;;;;17.00;16.10;;;;;;;;;;5071525;28;20024;-60
2023/08/12 01:20:56;;;;;;;25.83;24.33;;;;;;;;;;5075447;28;20023;-62
2023/08/12 01:23:21;;;;;;;23.63;22.33;;;;;;;;;;5070921;28;20494;-60
2023/08/12 01:25:47;;;;;;;22.15;20.85;;;;;;;;;;5071928;28;20020;-60
2023/08/12 01:28:12;;;;;;;20.90;19.77;;;;;;;;;;5070283;28;20383;-62
2023/08/12 01:30:54;;;;;;;20.08;18.90;;;;;;;;;;5072312;28;20164;-61
2023/08/12 01:33:39;;;;;;;18.73;17.73;;;;;;;;;;5071087;28;20380;-62
2023/08/12 01:36:18;;;;;;;19.08;17.98;;;;;;;;;;5070725;28;20487;-61
2023/08/12 01:38:44;;;;;;;18.75;17.65;;;;;;;;;;5069679;28;20065;-61
2023/08/12 01:41:10;;;;;;;18.50;17.48;;;;;;;;;;5068847;28;20024;-60
2023/08/12 01:43:35;;;;;;;18.55;17.45;;;;;;;;;;5071941;28;20078;-61
2023/08/12 01:46:01;;;;;;;17.20;16.30;;;;;;;;;;5072858;28;20020;-60
2023/08/12 01:48:26;;;;;;;16.85;15.95;;;;;;;;;;5067232;28;20350;-62
2023/08/12 01:50:52;;;;;;;16.88;15.98;;;;;;;;;;5068155;28;20443;-62
2023/08/12 01:53:17;;;;;;;16.55;15.68;;;;;;;;;;5071181;28;20033;-61
2023/08/12 01:55:43;;;;;;;16.42;15.52;;;;;;;;;;5069662;28;20450;-62
2023/08/12 01:58:08;;;;;;;16.67;15.77;;;;;;;;;;5069945;28;20017;-61
2023/08/12 02:00:33;;;;;;;16.40;15.55;;;;;;;;;;5072755;28;20441;-62
2023/08/12 02:02:59;;;;;;;16.42;15.52;;;;;;;;;;5070695;28;20055;-60
2023/08/12 02:05:24;;;;;;;17.35;16.35;;;;;;;;;;5070505;28;20017;-61
2023/08/12 02:07:49;;;;;;;16.52;15.63;;;;;;;;;;5069492;28;20033;-61
2023/08/12 02:10:15;;;;;;;16.58;15.68;;;;;;;;;;5069225;28;20460;-61
2023/08/12 02:12:40;;;;;;;16.42;15.52;;;;;;;;;;5070692;28;20052;-61
2023/08/12 02:15:05;;;;;;;15.73;14.93;;;;;;;;;;5068748;28;20468;-62
2023/08/12 02:17:31;;;;;;;15.82;15.02;;;;;;;;;;5070268;28;20066;-62
2023/08/12 02:19:56;;;;;;;16.60;15.70;;;;;;;;;;5069750;28;20031;-61
2023/08/12 02:22:22;;;;;;;15.48;14.73;;;;;;;;;;5070309;28;20025;-61
2023/08/12 02:24:47;;;;;;;16.85;15.95;;;;;;;;;;5069930;28;20023;-61
2023/08/12 02:27:13;;;;;;;15.90;15.10;;;;;;;;;;5070476;28;20017;-61
2023/08/12 02:29:38;;;;;;;16.30;15.40;;;;;;;;;;5069434;28;20111;-62
2023/08/12 02:32:03;;;;;;;16.13;15.25;;;;;;;;;;5069607;28;20023;-61
2023/08/12 02:34:29;;;;;;;16.00;15.20;;;;;;;;;;5069329;28;20138;-61
2023/08/12 02:36:54;;;;;;;16.23;15.32;;;;;;;;;;5065664;28;20017;-61
2023/08/12 02:39:19;;;;;;;15.82;15.02;;;;;;;;;;5067993;28;20099;-62
2023/08/12 02:41:44;;;;;;;16.30;15.40;;;;;;;;;;5066735;28;20480;-61
2023/08/12 02:44:10;;;;;;;15.85;15.05;;;;;;;;;;5064379;28;20454;-62
2023/08/12 02:46:35;;;;;;;15.60;14.80;;;;;;;;;;5069467;28;20066;-61
2023/08/12 02:49:00;;;;;;;17.40;16.33;;;;;;;;;;5064565;28;20104;-63
2023/08/12 02:51:25;;;;;;;16.35;15.45;;;;;;;;;;5070006;28;20029;-61
2023/08/12 02:53:51;;;;;;;16.10;15.20;;;;;;;;;;5069612;28;20028;-61
2023/08/12 02:56:16;;;;;;;16.27;15.38;;;;;;;;;;5070670;28;20016;-61
2023/08/12 02:58:42;;;;;;;17.20;16.20;;;;;;;;;;5067515;28;20753;-61
2023/08/12 03:01:07;;;;;;;16.20;15.40;;;;;;;;;;5071560;28;20091;-61
2023/08/12 03:03:33;;;;;;;16.30;15.40;;;;;;;;;;5069917;28;20067;-61
2023/08/12 03:05:58;;;;;;;16.08;15.27;;;;;;;;;;5064331;28;20013;-60
2023/08/12 03:08:23;;;;;;;16.17;15.27;;;;;;;;;;5069005;28;20016;-60
2023/08/12 03:10:49;;;;;;;15.80;15.00;;;;;;;;;;5073583;28;20009;-62
2023/08/12 03:13:14;;;;;;;15.73;14.93;;;;;;;;;;5072795;28;20020;-63
2023/08/12 03:15:42;;;;;;;16.05;15.15;;;;;;;;;;5074597;28;20020;-60
2023/08/12 03:18:08;;;;;;;15.68;14.88;;;;;;;;;;5072932;28;20040;-61
2023/08/12 03:20:33;;;;;;;16.10;15.23;;;;;;;;;;5074060;28;20102;-61
2023/08/12 03:23:00;;;;;;;15.63;14.82;;;;;;;;;;5070933;28;20475;-60
2023/08/12 03:25:25;;;;;;;16.10;15.20;;;;;;;;;;5073719;28;20418;-60
2023/08/12 03:27:50;;;;;;;16.25;15.35;;;;;;;;;;5072471;28;20097;-62
2023/08/12 03:30:16;;;;;;;16.17;15.27;;;;;;;;;;5072698;28;20479;-62
2023/08/12 03:32:41;;;;;;;15.60;14.80;;;;;;;;;;5072898;28;20036;-61
2023/08/12 03:35:06;;;;;;;15.38;14.57;;;;;;;;;;5073325;28;20438;-62
2023/08/12 03:37:32;;;;;;;15.55;14.75;;;;;;;;;;5073482;28;20048;-62
2023/08/12 03:39:57;;;;;;;15.30;14.50;;;;;;;;;;5071739;28;20074;-62
2023/08/12 03:42:22;;;;;;;15.45;14.68;;;;;;;;;;5073845;28;20033;-62
2023/08/12 03:44:48;;;;;;;16.25;15.35;;;;;;;;;;5073683;28;20032;-61
2023/08/12 03:47:13;;;;;;;15.55;14.75;;;;;;;;;;5076179;28;20020;-61
2023/08/12 03:49:38;;;;;;;16.95;15.95;;;;;;;;;;5074665;28;20558;-61
2023/08/12 03:52:06;;;;;;;16.05;15.23;;;;;;;;;;5073521;28;20494;-62
2023/08/12 03:54:32;;;;;;;15.88;15.07;;;;;;;;;;5075022;28;20081;-61
2023/08/12 03:56:57;;;;;;;16.08;15.23;;;;;;;;;;5072879;28;20016;-61
2023/08/12 03:59:22;;;;;;;16.43;15.53;;;;;;;;;;5073460;28;20013;-61
2023/08/12 04:01:48;;;;;;;15.10;14.35;;;;;;;;;;5072485;28;20280;-61
2023/08/12 04:04:13;;;;;;;14.95;14.25;;;;;;;;;;5072833;28;20068;-61
2023/08/12 04:06:38;;;;;;;14.80;14.10;;;;;;;;;;5073165;28;20414;-61
2023/08/12 04:09:05;;;;;;;14.30;13.60;;;;;;;;;;5075434;28;20027;-61
2023/08/12 04:11:30;;;;;;;15.20;14.43;;;;;;;;;;5070283;28;20071;-61
2023/08/12 04:13:55;;;;;;;14.88;14.18;;;;;;;;;;5075969;28;20476;-61
2023/08/12 04:16:21;;;;;;;15.93;15.13;;;;;;;;;;5074129;28;20028;-61
2023/08/12 04:18:47;;;;;;;15.20;14.45;;;;;;;;;;5069937;28;20029;-63
2023/08/12 04:21:12;;;;;;;15.35;14.55;;;;;;;;;;5072761;28;20021;-61
2023/08/12 04:23:37;;;;;;;15.88;15.07;;;;;;;;;;5073199;28;20044;-61
2023/08/12 04:26:03;;;;;;;15.13;14.40;;;;;;;;;;5070245;28;20421;-61
2023/08/12 04:28:28;;;;;;;14.90;14.20;;;;;;;;;;5074876;28;20032;-62
2023/08/12 04:30:53;;;;;;;14.70;14.00;;;;;;;;;;5073983;28;20667;-61
2023/08/12 04:33:21;;;;;;;14.70;14.00;;;;;;;;;;5074025;28;20426;-61
2023/08/12 04:35:47;;;;;;;15.85;15.05;;;;;;;;;;5072104;28;20047;-62
2023/08/12 04:38:12;;;;;;;14.50;13.80;;;;;;;;;;5072914;28;20420;-61
2023/08/12 04:40:38;;;;;;;14.38;13.68;;;;;;;;;;5073788;28;20426;-60
2023/08/12 04:43:03;;;;;;;14.00;13.40;;;;;;;;;;5073727;28;20033;-62
2023/08/12 04:45:28;;;;;;;15.30;14.50;;;;;;;;;;5068997;28;20037;-61
2023/08/12 04:47:55;;;;;;;15.80;15.00;;;;;;;;;;5071307;28;20027;-61
2023/08/12 04:50:20;;;;;;;15.00;14.30;;;;;;;;;;5071362;28;20027;-62
2023/08/12 04:52:46;;;;;;;14.60;13.90;;;;;;;;;;5072486;28;20480;-61
2023/08/12 04:55:11;;;;;;;14.82;14.13;;;;;;;;;;5070800;28;20266;-61
2023/08/12 04:57:37;;;;;;;14.00;13.32;;;;;;;;;;5071813;28;20029;-61
2023/08/12 05:00:03;;;;;;;13.97;13.37;;;;;;;;;;5068105;28;20012;-61
2023/08/12 05:02:28;;;;;;;13.80;13.20;;;;;;;;;;5071835;28;20274;-62
2023/08/12 05:04:53;;;;;;;13.82;13.23;;;;;;;;;;5072111;28;20393;-62
2023/08/12 05:07:19;;;;;;;13.40;12.80;;;;;;;;;;5070085;28;20032;-62
2023/08/12 05:09:44;;;;;;;13.88;13.27;;;;;;;;;;5069138;28;20571;-62
2023/08/12 05:12:10;;;;;;;13.45;12.85;;;;;;;;;;5051782;28;20024;-62
2023/08/12 05:14:36;;;;;;;13.45;12.85;;;;;;;;;;5069656;28;20648;-62
2023/08/12 05:17:01;;;;;;;14.03;13.40;;;;;;;;;;5071337;28;20028;-62
2023/08/12 05:19:26;;;;;;;14.20;13.55;;;;;;;;;;5068294;28;20268;-61
2023/08/12 05:21:52;;;;;;;14.90;14.20;;;;;;;;;;5071700;28;20021;-62
2023/08/12 05:24:17;;;;;;;13.80;13.20;;;;;;;;;;5067515;28;20467;-62
2023/08/12 05:26:42;;;;;;;13.47;12.87;;;;;;;;;;5071528;28;20543;-62
2023/08/12 05:29:08;;;;;;;13.48;12.88;;;;;;;;;;5071016;28;20249;-61
2023/08/12 05:31:33;;;;;;;13.88;13.27;;;;;;;;;;5071560;28;20082;-62
2023/08/12 05:33:58;;;;;;;13.93;13.33;;;;;;;;;;5069749;28;20052;-63
2023/08/12 05:36:23;;;;;;;13.45;12.85;;;;;;;;;;5068731;28;20296;-62
2023/08/12 05:38:49;;;;;;;13.50;12.90;;;;;;;;;;5063587;28;20488;-62
2023/08/12 05:41:14;;;;;;;13.70;13.10;;;;;;;;;;5068508;28;20067;-64
2023/08/12 05:43:39;;;;;;;13.87;13.27;;;;;;;;;;5072087;28;20264;-63
2023/08/12 05:46:05;;;;;;;14.13;13.52;;;;;;;;;;5073586;28;20242;-63
2023/08/12 05:48:30;;;;;;;14.40;13.70;;;;;;;;;;5069929;28;20024;-64
2023/08/12 05:50:55;;;;;;;13.50;12.90;;;;;;;;;;5070704;28;20272;-63
2023/08/12 05:53:21;;;;;;;13.70;13.10;;;;;;;;;;5068130;28;20364;-63
2023/08/12 05:55:46;;;;;;;13.45;12.85;;;;;;;;;;5063754;28;20104;-63
2023/08/12 05:58:12;;;;;;;12.73;12.13;;;;;;;;;;5065309;28;20024;-64
2023/08/12 06:00:37;;;;;;;13.02;12.43;;;;;;;;;;5048129;28;20242;-62
2023/08/12 06:03:03;;;;;;;13.43;12.82;;;;;;;;;;5050500;28;20054;-62
2023/08/12 06:05:28;;;;;;;13.25;12.65;;;;;;;;;;5051725;28;20028;-64
2023/08/12 06:07:53;;;;;;;13.20;12.60;;;;;;;;;;5064868;28;20028;-63
2023/08/12 06:10:19;;;;;;;13.40;12.80;;;;;;;;;;5067750;28;20021;-59
2023/08/12 06:12:44;;;;;;;13.13;12.53;;;;;;;;;;5070833;28;20025;-61
2023/08/12 06:15:09;;;;;;;13.30;12.70;;;;;;;;;;5067245;28;20621;-63
2023/08/12 06:17:35;;;;;;;13.35;12.75;;;;;;;;;;5073273;28;20048;-63
2023/08/12 06:20:00;;;;;;;13.10;12.50;;;;;;;;;;5066444;28;20099;-64
2023/08/12 06:22:25;;;;;;;13.50;12.90;;;;;;;;;;5069634;28;20054;-64
2023/08/12 06:24:51;;;;;;;13.18;12.57;;;;;;;;;;5069774;28;20055;-62
2023/08/12 06:27:16;;;;;;;13.10;12.50;;;;;;;;;;5066265;28;20030;-62
2023/08/12 06:29:41;;;;;;;13.50;12.90;;;;;;;;;;5067380;28;20179;-61
2023/08/12 06:32:07;;;;;;;14.10;13.50;;;;;;;;;;5064361;28;20043;-62
2023/08/12 06:34:32;;;;;;;13.23;12.63;;;;;;;;;;5065973;28;20020;-63
2023/08/12 06:36:57;;;;;;;13.87;13.27;;;;;;;;;;5068131;28;20109;-63
2023/08/12 06:39:23;;;;;;;13.18;12.57;;;;;;;;;;5067505;28;20506;-61
2023/08/12 06:41:48;;;;;;;12.67;12.07;;;;;;;;;;5049823;28;20035;-63
2023/08/12 06:44:13;;;;;;;13.23;12.63;;;;;;;;;;5070858;28;20025;-62
2023/08/12 06:46:39;;;;;;;13.27;12.67;;;;;;;;;;5071242;28;20025;-62
2023/08/12 06:49:04;;;;;;;13.17;12.57;;;;;;;;;;5067024;28;20028;-63
2023/08/12 06:51:29;;;;;;;13.15;12.55;;;;;;;;;;5068779;28;20803;-63
2023/08/12 06:53:55;;;;;;;13.10;12.50;;;;;;;;;;5065154;28;20024;-62
2023/08/12 06:56:20;;;;;;;13.40;12.80;;;;;;;;;;5062622;28;20016;-63
2023/08/12 06:58:45;;;;;;;13.03;12.43;;;;;;;;;;5052460;28;20099;-63
2023/08/12 07:01:10;;;;;;;12.83;12.23;;;;;;;;;;5067910;28;20013;-61
2023/08/12 07:03:36;;;;;;;13.40;12.80;;;;;;;;;;5067251;28;20376;-62
2023/08/12 07:06:01;;;;;;;13.13;12.53;;;;;;;;;;5069576;28;20016;-62
2023/08/12 07:08:27;;;;;;;12.93;12.32;;;;;;;;;;5069844;28;20404;-61
2023/08/12 07:10:52;;;;;;;12.82;12.23;;;;;;;;;;5069926;28;20109;-60
2023/08/12 07:13:17;;;;;;;12.90;12.30;;;;;;;;;;5070529;28;20016;-61
2023/08/12 07:15:43;;;;;;;12.83;12.23;;;;;;;;;;5071149;28;20128;-62
2023/08/12 07:18:08;;;;;;;12.80;12.20;;;;;;;;;;5067475;28;20257;-62
2023/08/12 07:20:34;;;;;;;13.40;12.80;;;;;;;;;;5061166;28;20572;-62
2023/08/12 07:22:59;;;;;;;12.87;12.27;;;;;;;;;;5069374;28;20040;-61
2023/08/12 07:25:24;;;;;;;12.73;12.13;;;;;;;;;;5069637;28;20025;-61
2023/08/12 07:27:50;;;;;;;13.23;12.63;;;;;;;;;;5068045;28;20356;-62
2023/08/12 07:30:15;;;;;;;13.18;12.57;;;;;;;;;;5064421;28;20035;-63
2023/08/12 07:32:40;;;;;;;13.47;12.87;;;;;;;;;;5064839;28;20032;-62
2023/08/12 07:35:06;;;;;;;12.63;12.03;;;;;;;;;;5069457;28;20343;-63
2023/08/12 07:37:31;;;;;;;12.85;12.25;;;;;;;;;;5065393;28;20056;-63
2023/08/12 07:39:56;;;;;;;12.90;12.30;;;;;;;;;;5069890;28;20021;-62
2023/08/12 07:42:22;;;;;;;12.63;12.03;;;;;;;;;;5068957;28;20107;-64
2023/08/12 07:44:48;;;;;;;13.40;12.80;;;;;;;;;;5068552;28;20021;-62
2023/08/12 07:47:15;;;;;;;13.10;12.50;;;;;;;;;;5067544;28;20025;-63
2023/08/12 07:49:40;;;;;;;12.75;12.15;;;;;;;;;;5065402;28;20052;-65
2023/08/12 07:52:05;;;;;;;12.63;12.02;;;;;;;;;;5071890;28;20142;-64
2023/08/12 07:54:31;;;;;;;12.90;12.30;;;;;;;;;;5069281;28;20021;-64
2023/08/12 07:56:56;;;;;;;12.95;12.35;;;;;;;;;;5071361;28;20257;-65
2023/08/12 07:59:21;;;;;;;13.27;12.67;;;;;;;;;;5069148;28;20021;-66
2023/08/12 08:01:46;;;;;;;13.27;12.67;;;;;;;;;;5070823;28;20526;-63
2023/08/12 08:04:12;;;;;;;13.18;12.57;;;;;;;;;;5069340;28;20063;-62
2023/08/12 08:06:37;;;;;;;13.30;12.70;;;;;;;;;;5072654;28;20055;-63
2023/08/12 08:09:03;;;;;;;12.90;12.30;;;;;;;;;;5074608;28;20028;-65
2023/08/12 08:11:29;;;;;;;13.57;12.98;;;;;;;;;;5073324;28;20539;-64
2023/08/12 08:13:54;;;;;;;14.38;13.68;;;;;;;;;;5073762;28;20031;-62
2023/08/12 08:16:19;;;;;;;13.47;12.87;;;;;;;;;;5076345;28;20145;-63
2023/08/12 08:18:45;;;;;;;13.53;12.93;;;;;;;;;;5070677;28;20027;-63
2023/08/12 08:21:11;;;;;;;13.67;13.07;;;;;;;;;;5078117;28;20102;-64
2023/08/12 08:23:36;;;;;;;14.00;13.30;;;;;;;;;;5073671;28;20732;-63
2023/08/12 08:26:02;;;;;;;14.25;13.55;;;;;;;;;;5070129;28;20026;-62
2023/08/12 08:28:27;;;;;;;14.00;13.30;;;;;;;;;;5073480;28;20479;-63
2023/08/12 08:30:53;;;;;;;13.73;13.07;;;;;;;;;;5070770;28;20016;-63
2023/08/12 08:33:18;;;;;;;13.35;12.75;;;;;;;;;;5067895;28;20052;-63
2023/08/12 08:35:44;;;;;;;13.45;12.85;;;;;;;;;;5072594;28;20039;-61
2023/08/12 08:38:09;;;;;;;13.20;12.60;;;;;;;;;;5071962;28;20013;-61
2023/08/12 08:40:34;;;;;;;13.38;12.77;;;;;;;;;;5073055;28;20032;-62
2023/08/12 08:43:03;;;;;;;13.43;12.82;;;;;;;;;;5073182;28;20022;-61
2023/08/12 08:45:30;;;;;;;14.10;13.40;;;;;;;;;;5063062;28;20040;-61
2023/08/12 08:47:56;;;;;;;13.98;13.27;;;;;;;;;;5069240;28;20103;-62
2023/08/12 08:50:21;;;;;;;13.98;13.27;;;;;;;;;;5070968;28;20116;-61
2023/08/12 08:52:47;;;;;;;14.13;13.43;;;;;;;;;;5069118;28;20463;-60
2023/08/12 08:55:13;;;;;;;13.43;12.82;;;;;;;;;;5068659;28;20029;-61
2023/08/12 08:57:39;;;;;;;13.60;13.00;;;;;;;;;;5071573;28;20391;-61
2023/08/12 09:00:07;;;;;;;14.00;13.30;;;;;;;;;;5077521;28;20040;-60
2023/08/12 09:02:33;;;;;;;14.23;13.52;;;;;;;;;;5069631;28;20408;-61
2023/08/12 09:04:58;;;;;;;13.20;12.60;;;;;;;;;;5070560;28;20032;-60
2023/08/12 09:07:24;;;;;;;13.25;12.65;;;;;;;;;;5072919;28;20025;-62
2023/08/12 09:09:52;;;;;;;14.15;13.45;;;;;;;;;;5068680;28;20548;-61
2023/08/12 09:12:18;;;;;;;13.32;12.73;;;;;;;;;;5070508;28;20032;-62
2023/08/12 09:14:43;;;;;;;13.68;12.98;;;;;;;;;;5068164;28;20025;-63
2023/08/12 09:17:09;;;;;;;13.57;12.90;;;;;;;;;;5071328;28;20513;-63
2023/08/12 09:19:34;;;;;;;14.30;13.60;;;;;;;;;;5070352;28;20043;-63
2023/08/12 09:22:00;;;;;;;13.70;13.00;;;;;;;;;;5068816;28;20013;-65
2023/08/12 09:24:25;;;;;;;13.65;13.00;;;;;;;;;;5068563;28;20032;-61
2023/08/12 09:26:51;;;;;;;14.07;13.38;;;;;;;;;;5069019;28;20463;-61
2023/08/12 09:29:16;;;;;;;14.60;13.90;;;;;;;;;;5073139;28;20025;-62
2023/08/12 09:31:42;;;;;;;14.33;13.63;;;;;;;;;;5069075;28;20108;-61
2023/08/12 09:34:07;;;;;;;14.57;13.88;;;;;;;;;;5070452;28;20678;-61
2023/08/12 09:36:33;;;;;;;14.65;13.95;;;;;;;;;;5070145;28;20063;-63
2023/08/12 09:38:59;;;;;;;13.65;13.05;;;;;;;;;;5066035;28;20107;-62
2023/08/12 09:41:28;;;;;;;14.15;13.45;;;;;;;;;;5068520;28;20088;-62
2023/08/12 09:43:54;;;;;;;14.23;13.52;;;;;;;;;;5067411;28;20087;-63
2023/08/12 09:46:21;;;;;;;14.52;13.82;;;;;;;;;;5064819;28;20024;-62
2023/08/12 09:48:47;;;;;;;14.43;13.73;;;;;;;;;;5070183;28;20021;-63
2023/08/12 09:51:12;;;;;;;14.45;13.75;;;;;;;;;;5066504;28;20103;-61
2023/08/12 09:53:37;;;;;;;14.32;13.63;;;;;;;;;;5064722;28;20120;-63
2023/08/12 09:56:07;;;;;;;13.60;13.00;;;;;;;;;;5071341;28;20032;-64
2023/08/12 09:58:33;;;;;;;13.77;13.18;;;;;;;;;;5066688;28;20078;-62
2023/08/12 10:00:59;;;;;;;13.40;12.80;;;;;;;;;;5072806;28;20020;-62
2023/08/12 10:03:24;;;;;;;14.40;13.70;;;;;;;;;;5068581;28;20087;-61
2023/08/12 10:05:50;;;;;;;15.02;14.32;;;;;;;;;;5068894;28;20029;-62
2023/08/12 10:08:16;;;;;;;13.85;13.20;;;;;;;;;;5070225;28;20075;-62
2023/08/12 10:10:42;;;;;;;13.95;13.32;;;;;;;;;;5074584;28;20108;-62
2023/08/12 10:13:09;;;;;;;14.10;13.40;;;;;;;;;;5069799;28;21226;-62
2023/08/12 10:15:34;;;;;;;14.70;14.00;;;;;;;;;;5069508;28;20039;-61
2023/08/12 10:17:59;;;;;;;13.68;13.07;;;;;;;;;;5069576;28;20619;-62
2023/08/12 10:20:25;;;;;;;14.00;13.30;;;;;;;;;;5066704;28;20024;-65
2023/08/12 10:22:51;;;;;;;14.10;13.40;;;;;;;;;;5068799;28;20024;-63
2023/08/12 10:25:18;;;;;;;14.20;13.50;;;;;;;;;;5070063;28;20031;-61
2023/08/12 10:27:43;;;;;;;13.88;13.23;;;;;;;;;;5063889;28;20020;-60
2023/08/12 10:30:09;;;;;;;13.48;12.88;;;;;;;;;;5063839;28;20035;-62
2023/08/12 10:32:34;;;;;;;14.23;13.52;;;;;;;;;;5050356;28;20029;-59
2023/08/12 10:35:00;;;;;;;13.70;13.07;;;;;;;;;;5068783;28;20052;-58
2023/08/12 10:37:25;;;;;;;13.40;12.80;;;;;;;;;;5066742;28;20028;-61
2023/08/12 10:39:54;;;;;;;13.88;13.18;;;;;;;;;;5068056;28;20526;-60
2023/08/12 10:42:38;;;;;;;13.63;13.02;;;;;;;;;;5066639;28;20024;-59
2023/08/12 10:45:05;;;;;;;14.20;13.50;;;;;;;;;;5069162;28;20547;-60
2023/08/12 10:47:32;;;;;;;13.90;13.23;;;;;;;;;;5068659;28;20059;-62
2023/08/12 10:49:57;;;;;;;13.70;13.10;;;;;;;;;;5067697;28;20040;-62
2023/08/12 10:52:27;;;;;;;13.57;12.98;;;;;;;;;;5069122;28;20020;-60
2023/08/12 10:54:52;;;;;;;13.63;13.02;;;;;;;;;;5067739;28;20023;-62
2023/08/12 10:57:18;;;;;;;13.73;13.10;;;;;;;;;;5068263;28;20025;-63
2023/08/12 10:59:46;;;;;;;14.40;13.70;;;;;;;;;;5067282;28;20737;-61
2023/08/12 11:02:36;;;;;;;14.18;13.48;;;;;;;;;;5066099;28;20070;-60
2023/08/12 11:05:01;;;;;;;14.13;13.43;;;;;;;;;;5066336;28;20028;-61
2023/08/12 11:07:32;;;;;;;13.93;13.23;;;;;;;;;;5065990;28;20027;-61
2023/08/12 11:10:04;;;;;;;14.05;13.35;;;;;;;;;;5066329;28;20017;-61
2023/08/12 11:12:34;;;;;;;13.95;13.30;;;;;;;;;;5066382;28;20024;-60
2023/08/12 11:15:00;;;;;;;13.70;13.10;;;;;;;;;;5068403;28;20027;-62
2023/08/12 11:17:30;;;;;;;14.10;13.40;;;;;;;;;;5063131;28;20542;-62
2023/08/12 11:19:55;;;;;;;14.20;13.50;;;;;;;;;;5068436;28;20099;-64
2023/08/12 11:22:20;;;;;;;13.43;12.82;;;;;;;;;;5067732;28;20150;-63
2023/08/12 11:24:47;;;;;;;14.10;13.40;;;;;;;;;;5065540;28;20025;-65
2023/08/12 11:27:13;;;;;;;13.95;13.25;;;;;;;;;;5065045;28;20107;-67
2023/08/12 11:29:39;;;;;;;14.20;13.50;;;;;;;;;;5052071;28;20102;-67
2023/08/12 11:32:05;;;;;;;13.68;13.07;;;;;;;;;;5065944;28;20048;-66
2023/08/12 11:34:30;;;;;;;14.00;13.30;;;;;;;;;;5077959;28;20028;-66
2023/08/12 11:36:56;;;;;;;13.50;12.90;;;;;;;;;;5070963;28;20036;-64
2023/08/12 11:39:23;;;;;;;14.05;13.35;;;;;;;;;;5071937;28;20020;-65
2023/08/12 11:41:50;;;;;;;13.95;13.27;;;;;;;;;;5074641;28;20103;-63
2023/08/12 11:44:15;;;;;;;14.40;13.70;;;;;;;;;;5071171;28;20029;-61
2023/08/12 11:46:41;;;;;;;13.48;12.88;;;;;;;;;;5071934;28;20039;-63
2023/08/12 11:49:06;;;;;;;13.88;13.25;;;;;;;;;;5072747;28;20055;-64
2023/08/12 11:51:32;;;;;;;13.68;13.02;;;;;;;;;;5075573;28;20048;-62
2023/08/12 11:53:57;;;;;;;13.93;13.23;;;;;;;;;;5069825;28;20025;-65
2023/08/12 11:56:23;;;;;;;13.93;13.27;;;;;;;;;;5071913;28;20025;-63
2023/08/12 11:58:50;;;;;;;14.43;13.73;;;;;;;;;;5070333;28;20269;-62
2023/08/12 12:01:15;;;;;;;13.93;13.23;;;;;;;;;;5074150;28;20361;-63
2023/08/12 12:03:41;;;;;;;14.30;13.60;;;;;;;;;;5069029;28;20066;-63
2023/08/12 12:06:06;;;;;;;13.87;13.23;;;;;;;;;;5071681;28;20032;-62
2023/08/12 12:08:32;;;;;;;13.52;12.93;;;;;;;;;;5072094;28;20292;-64
2023/08/12 12:11:03;;;;;;;13.50;12.90;;;;;;;;;;5069270;28;20025;-64
2023/08/12 12:13:29;;;;;;;13.68;13.07;;;;;;;;;;5072194;28;20155;-64
2023/08/12 12:15:55;;;;;;;13.38;12.77;;;;;;;;;;5069343;28;20024;-63
2023/08/12 12:18:20;;;;;;;13.50;12.90;;;;;;;;;;5070578;28;20024;-61
2023/08/12 12:20:55;;;;;;;14.17;13.47;;;;;;;;;;5070443;28;20025;-62
2023/08/12 12:23:20;;;;;;;13.50;12.90;;;;;;;;;;5071594;28;20253;-62
2023/08/12 12:25:46;;;;;;;14.00;13.30;;;;;;;;;;5071836;28;20020;-64
2023/08/12 12:28:11;;;;;;;14.10;13.40;;;;;;;;;;5071147;28;20036;-64
2023/08/12 12:30:36;;;;;;;13.60;13.00;;;;;;;;;;5069907;28;20183;-66
2023/08/12 12:33:02;;;;;;;13.43;12.82;;;;;;;;;;5072714;28;20272;-65
2023/08/12 12:35:27;;;;;;;14.20;13.50;;;;;;;;;;5069885;28;20472;-66
2023/08/12 12:37:52;;;;;;;12.82;12.23;;;;;;;;;;5070532;28;20086;-63
2023/08/12 12:40:18;;;;;;;12.73;12.13;;;;;;;;;;5078787;28;20084;-64
2023/08/12 12:42:43;;;;;;;12.85;12.25;;;;;;;;;;5070845;28;20032;-62
2023/08/12 12:45:09;;;;;;;12.88;12.27;;;;;;;;;;5072939;28;20031;-63
2023/08/12 12:47:34;;;;;;;12.90;12.30;;;;;;;;;;5073821;28;20025;-63
2023/08/12 12:49:59;;;;;;;12.80;12.20;;;;;;;;;;5073812;28;20570;-64
2023/08/12 12:52:25;;;;;;;12.45;11.85;;;;;;;;;;5068813;28;20476;-63
2023/08/12 12:54:50;;;;;;;12.30;11.80;;;;;;;;;;5073445;28;20166;-64
2023/08/12 12:57:15;;;;;;;12.73;12.13;;;;;;;;;;5069921;28;20265;-63
2023/08/12 12:59:41;;;;;;;13.23;12.63;;;;;;;;;;5068969;28;20487;-63
2023/08/12 13:02:06;;;;;;;12.50;11.90;;;;;;;;;;5058190;28;20020;-62
2023/08/12 13:04:31;;;;;;;13.10;12.50;;;;;;;;;;5068043;28;20041;-64
2023/08/12 13:06:57;;;;;;;12.90;12.30;;;;;;;;;;5066884;28;20389;-65
2023/08/12 13:09:22;;;;;;;12.90;12.30;;;;;;;;;;5070112;28;20063;-61
2023/08/12 13:11:47;;;;;;;12.48;11.88;;;;;;;;;;5070440;28;20047;-63
2023/08/12 13:14:16;;;;;;;12.50;11.90;;;;;;;;;;5070353;28;20391;-71
2023/08/12 13:16:42;;;;;;;12.18;11.68;;;;;;;;;;5068132;28;20052;-62
2023/08/12 13:19:07;;;;;;;12.15;11.65;;;;;;;;;;5072009;28;20190;-63
2023/08/12 13:21:33;;;;;;;12.40;11.80;;;;;;;;;;5068000;28;20471;-63
2023/08/12 13:23:58;;;;;;;12.07;11.57;;;;;;;;;;5074954;28;20535;-62
2023/08/12 13:26:24;;;;;;;12.70;12.10;;;;;;;;;;5071922;28;20051;-61
2023/08/12 13:28:49;;;;;;;12.40;11.80;;;;;;;;;;5072993;28;20024;-61
2023/08/12 13:31:14;;;;;;;12.57;11.98;;;;;;;;;;5064746;28;20024;-61
2023/08/12 13:33:40;;;;;;;12.57;11.98;;;;;;;;;;5066270;28;20036;-62
2023/08/12 13:36:06;;;;;;;12.33;11.80;;;;;;;;;;5062273;28;20052;-62
2023/08/12 13:38:32;;;;;;;13.18;12.57;;;;;;;;;;5066013;28;20685;-63
2023/08/12 13:40:57;;;;;;;12.13;11.63;;;;;;;;;;5066618;28;20047;-62
2023/08/12 13:43:22;;;;;;;12.73;12.13;;;;;;;;;;5068065;28;20365;-70
2023/08/12 13:45:48;;;;;;;12.45;11.88;;;;;;;;;;5071508;28;20376;-61
2023/08/12 13:48:13;;;;;;;12.73;12.13;;;;;;;;;;5070136;28;20028;-61
2023/08/12 13:50:38;;;;;;;12.48;11.88;;;;;;;;;;5066009;28;20273;-61
2023/08/12 13:53:04;;;;;;;12.20;11.70;;;;;;;;;;5068160;28;20020;-61
2023/08/12 13:55:29;;;;;;;12.65;12.05;;;;;;;;;;5068386;28;20461;-61
2023/08/12 13:57:54;;;;;;;12.50;11.90;;;;;;;;;;5068487;28;20020;-62
2023/08/12 14:00:20;;;;;;;12.40;11.80;;;;;;;;;;5069379;28;20025;-62
2023/08/12 14:02:47;;;;;;;12.13;11.63;;;;;;;;;;5067888;28;20041;-62
2023/08/12 14:05:12;;;;;;;12.20;11.70;;;;;;;;;;5068208;28;20031;-61
2023/08/12 14:07:38;;;;;;;12.48;11.88;;;;;;;;;;5067336;28;20032;-60